Raymond, South Dakota
Current Conditions -  °F | °C
As of 5:53 AM on Saturday 22 Nov 2014 (Local Time) from KATY Reporting Station
Haze Haze  
Wind Chill: 14°   Ceiling: Unl
Heat Index: 24°   Visibility: 5mi
Dew Point: 22°   Wind: 10mph
Humidity: 91%   Direction: 160°SSE
Pressure: 29.71"   Gusts: NA
Location:  44.91°N, 97.94°W
Report Text: KATY 221153Z AUTO 16009KT 5SM BR CLR M04/M06 A2971 RMK AO2 SLP080 T10441056 11011 21050 58012
Loading
Personal Weather Stations






























Interactive Weather Map New forecast layout! Learn more

10-Day Weather Forecast

Advertisements
Track Severe Weather on mobile